createdAt,value
2023-03-18T00:03:48.783Z,67.22
2023-03-18T00:08:52.572Z,67.20
2023-03-18T00:13:55.634Z,67.38
2023-03-18T00:18:58.489Z,67.78
2023-03-18T00:24:01.800Z,68.24
2023-03-18T00:29:04.896Z,68.23
2023-03-18T00:34:08.374Z,68.46
2023-03-18T00:39:13.320Z,68.97
2023-03-18T00:44:16.344Z,69.00
2023-03-18T00:49:19.925Z,69.02
2023-03-18T00:54:24.783Z,69.24
2023-03-18T00:59:27.877Z,69.70
2023-03-18T01:04:31.302Z,70.08
2023-03-18T01:09:34.468Z,69.71
2023-03-18T01:14:39.671Z,69.92
2023-03-18T01:19:43.725Z,69.71
2023-03-18T01:24:47.197Z,69.67
2023-03-18T01:29:50.221Z,69.51
2023-03-18T01:34:53.129Z,69.94
2023-03-18T01:39:56.135Z,69.83
2023-03-18T01:45:24.763Z,69.57
2023-03-18T01:50:37.968Z,69.75
2023-03-18T01:55:42.412Z,69.72
2023-03-18T02:00:54.683Z,69.58
2023-03-18T02:05:57.884Z,69.47
2023-03-18T02:11:02.382Z,69.48
2023-03-18T02:16:13.817Z,69.22
2023-03-18T02:21:33.403Z,69.21
2023-03-18T02:26:59.044Z,69.18
2023-03-18T02:32:06.202Z,68.83
2023-03-18T02:37:10.050Z,68.93
2023-03-18T02:42:14.569Z,68.50
2023-03-18T02:47:22.874Z,69.22
2023-03-18T02:52:26.789Z,69.31
2023-03-18T02:57:29.757Z,69.60
2023-03-18T03:02:32.909Z,69.88
2023-03-18T03:07:35.934Z,70.58
2023-03-18T03:12:39.867Z,70.61
2023-03-18T03:17:42.795Z,71.00
2023-03-18T03:22:46.290Z,70.83
2023-03-18T03:27:49.879Z,70.42
2023-03-18T03:32:52.895Z,70.21
2023-03-18T03:37:55.797Z,70.34
2023-03-18T03:42:59.006Z,70.74
2023-03-18T03:48:02.332Z,70.93
2023-03-18T03:53:06.816Z,71.28
2023-03-18T03:58:10.639Z,71.37
2023-03-18T04:03:13.677Z,71.21
2023-03-18T04:08:17.996Z,71.72
2023-03-18T04:13:20.755Z,71.81
2023-03-18T04:18:23.686Z,71.74
2023-03-18T04:23:26.908Z,72.06
2023-03-18T04:28:30.222Z,71.87
2023-03-18T04:33:33.732Z,71.84
2023-03-18T04:38:37.322Z,71.81
2023-03-18T04:43:40.054Z,71.82
2023-03-18T04:48:43.632Z,72.16
2023-03-18T04:53:46.611Z,71.99
2023-03-18T04:58:49.899Z,72.29
2023-03-18T05:03:52.807Z,72.77
2023-03-18T05:08:57.113Z,73.07
2023-03-18T05:14:00.170Z,73.23
2023-03-18T05:19:03.597Z,73.15
2023-03-18T05:24:06.918Z,73.02
2023-03-18T05:29:09.944Z,73.23
2023-03-18T05:34:13.609Z,72.41
2023-03-18T05:39:16.922Z,71.71
2023-03-18T05:44:19.993Z,71.35
2023-03-18T05:49:23.714Z,70.42
2023-03-18T05:54:27.080Z,69.46
2023-03-18T05:59:31.616Z,68.86
2023-03-18T06:04:34.606Z,67.75
2023-03-18T06:09:37.718Z,67.11
2023-03-18T06:14:40.606Z,66.30
2023-03-18T06:19:45.079Z,64.83
2023-03-18T06:24:48.530Z,63.97
2023-03-18T06:29:51.749Z,62.50
2023-03-18T06:34:54.668Z,61.76
2023-03-18T06:39:58.661Z,61.53
2023-03-18T06:45:01.824Z,61.56
2023-03-18T06:50:05.900Z,60.74
2023-03-18T06:55:09.505Z,60.61
2023-03-18T07:00:13.293Z,59.56
2023-03-18T07:05:17.240Z,58.25
2023-03-18T07:10:33.016Z,57.56
2023-03-18T07:15:36.363Z,56.57
2023-03-18T07:20:40.267Z,55.83
2023-03-18T07:25:44.785Z,56.05
2023-03-18T07:30:48.158Z,55.30
2023-03-18T07:35:51.643Z,53.96
2023-03-18T07:40:54.580Z,53.31
2023-03-18T07:45:58.710Z,51.93
2023-03-18T07:51:02.766Z,51.86
2023-03-18T07:56:07.328Z,51.00
2023-03-18T08:01:10.414Z,50.61
2023-03-18T08:06:15.525Z,49.88
2023-03-18T08:11:18.738Z,49.97
2023-03-18T08:16:21.773Z,46.89
2023-03-18T08:21:24.803Z,45.02
2023-03-18T08:26:27.955Z,43.11
2023-03-18T08:31:31.172Z,40.06
2023-03-18T08:36:35.221Z,39.57
2023-03-18T08:41:38.808Z,36.69
2023-03-18T08:46:41.912Z,36.73
2023-03-18T08:51:45.116Z,35.09
2023-03-18T08:56:48.060Z,34.09
2023-03-18T09:01:51.604Z,33.67
2023-03-18T09:06:54.683Z,33.14
2023-03-18T09:11:57.686Z,33.17
2023-03-18T09:17:01.158Z,31.92
2023-03-18T09:22:04.623Z,31.25
2023-03-18T09:27:07.650Z,30.91
2023-03-18T09:32:11.272Z,30.53
2023-03-18T09:37:14.989Z,30.39
2023-03-18T09:43:02.514Z,31.14
2023-03-18T09:48:43.481Z,31.01
2023-03-18T09:53:59.587Z,30.80
2023-03-18T09:59:28.726Z,29.55
2023-03-18T10:04:49.433Z,29.47
2023-03-18T10:10:22.627Z,27.88
2023-03-18T10:15:41.581Z,28.40
2023-03-18T10:21:24.774Z,28.95
2023-03-18T10:26:58.073Z,29.05
2023-03-18T10:32:21.614Z,28.33
2023-03-18T10:37:39.384Z,28.42
2023-03-18T10:42:44.107Z,29.35
2023-03-18T10:48:11.006Z,28.29
2023-03-18T10:53:55.689Z,26.88
2023-03-18T10:58:59.139Z,26.98
2023-03-18T11:04:06.977Z,26.10
2023-03-18T11:09:15.927Z,25.88
2023-03-18T11:14:28.908Z,24.89
2023-03-18T11:19:47.856Z,24.29
2023-03-18T11:25:11.668Z,24.52
2023-03-18T11:30:41.063Z,24.85
2023-03-18T11:35:52.007Z,24.08
2023-03-18T11:41:17.622Z,24.58
2023-03-18T11:46:27.633Z,24.88
2023-03-18T11:51:55.234Z,24.26
2023-03-18T11:57:45.289Z,23.69
2023-03-18T12:03:17.052Z,23.90
2023-03-18T12:08:57.072Z,23.02
2023-03-18T12:14:23.486Z,23.83
2023-03-18T12:20:10.176Z,23.32
2023-03-18T12:25:52.695Z,23.45
2023-03-18T12:31:22.970Z,22.78
2023-03-18T12:36:56.250Z,23.90
2023-03-18T12:42:09.228Z,24.48
2023-03-18T12:47:42.201Z,24.96
2023-03-18T12:53:22.935Z,25.21
2023-03-18T12:58:37.902Z,25.87
2023-03-18T13:03:44.785Z,26.44
2023-03-18T13:09:13.094Z,27.55
2023-03-18T13:14:41.198Z,28.72
2023-03-18T13:19:45.150Z,29.43
2023-03-18T13:25:13.814Z,29.36
2023-03-18T13:30:48.674Z,30.18
2023-03-18T13:36:22.827Z,30.20
2023-03-18T13:41:58.079Z,30.62
2023-03-18T13:47:09.123Z,30.21
2023-03-18T13:52:43.947Z,31.02
2023-03-18T13:58:06.610Z,31.64
2023-03-18T14:03:30.116Z,30.87
2023-03-18T14:08:39.305Z,31.48
2023-03-18T14:14:06.087Z,31.48
2023-03-18T14:19:28.723Z,31.75
2023-03-18T14:24:32.168Z,31.34
2023-03-18T14:29:42.356Z,31.43
2023-03-18T14:34:59.011Z,31.42
2023-03-18T14:40:16.286Z,32.24
2023-03-18T14:45:33.604Z,31.94
2023-03-18T14:50:47.566Z,31.75
2023-03-18T14:55:57.249Z,31.72
2023-03-18T15:01:12.297Z,31.76
2023-03-18T15:06:21.972Z,31.94
2023-03-18T15:11:25.576Z,32.08
2023-03-18T15:16:33.176Z,32.34
2023-03-18T15:21:37.601Z,32.40
2023-03-18T15:26:42.508Z,32.37
2023-03-18T15:31:45.779Z,33.00
2023-03-18T15:37:01.013Z,33.68
2023-03-18T15:42:15.555Z,34.40
2023-03-18T15:47:32.224Z,35.16
2023-03-18T15:52:41.896Z,35.76
2023-03-18T15:57:45.102Z,36.39
2023-03-18T16:02:48.809Z,37.03
2023-03-18T16:07:53.071Z,37.57
2023-03-18T16:13:01.941Z,38.22
2023-03-18T16:18:04.956Z,39.05
2023-03-18T16:23:08.145Z,39.47
2023-03-18T16:28:22.568Z,39.99
2023-03-18T16:33:26.224Z,40.73
2023-03-18T16:38:31.110Z,41.23
2023-03-18T16:43:33.995Z,41.64
2023-03-18T16:48:36.862Z,42.07
2023-03-18T16:53:40.345Z,42.68
2023-03-18T16:58:44.777Z,42.92
2023-03-18T17:03:48.163Z,43.66
2023-03-18T17:08:52.552Z,44.07
2023-03-18T17:13:56.453Z,44.34
2023-03-18T17:18:59.596Z,44.97
2023-03-18T17:24:03.705Z,45.35
2023-03-18T17:29:08.079Z,46.52
2023-03-18T17:34:14.060Z,46.58
2023-03-18T17:39:17.709Z,47.31
2023-03-18T17:44:30.185Z,48.00
2023-03-18T17:49:33.176Z,48.89
2023-03-18T17:54:36.607Z,49.55
2023-03-18T17:59:39.582Z,50.34
2023-03-18T18:04:43.463Z,50.94
2023-03-18T18:09:47.344Z,51.79
2023-03-18T18:14:50.743Z,52.26
2023-03-18T18:19:54.732Z,52.99
2023-03-18T18:24:58.112Z,53.20
2023-03-18T18:30:00.938Z,54.14
2023-03-18T18:35:04.556Z,54.35
2023-03-18T18:40:10.708Z,55.22
2023-03-18T18:45:19.164Z,55.48
2023-03-18T18:50:32.279Z,56.26
2023-03-18T18:55:36.077Z,57.12
2023-03-18T19:00:39.153Z,58.20
2023-03-18T19:05:43.931Z,57.60
2023-03-18T19:10:47.011Z,58.30
2023-03-18T19:15:55.987Z,59.04
2023-03-18T19:20:58.955Z,59.37
2023-03-18T19:26:06.378Z,59.48
2023-03-18T19:31:13.852Z,60.43
2023-03-18T19:36:27.205Z,60.59
2023-03-18T19:41:30.723Z,61.90
2023-03-18T19:46:39.231Z,61.87
2023-03-18T19:51:42.641Z,62.14
2023-03-18T19:56:46.241Z,62.30
2023-03-18T20:01:50.557Z,63.22
2023-03-18T20:06:54.857Z,63.31
2023-03-18T20:12:04.526Z,63.99
2023-03-18T20:17:42.345Z,63.64
2023-03-18T20:22:59.441Z,63.71
2023-03-18T20:28:07.524Z,63.77
2023-03-18T20:33:10.615Z,64.30
2023-03-18T20:38:39.265Z,64.61
2023-03-18T20:43:42.751Z,64.90
2023-03-18T20:48:46.158Z,64.88
2023-03-18T20:53:50.349Z,65.55
2023-03-18T20:58:53.732Z,65.82
2023-03-18T21:04:01.752Z,66.28
2023-03-18T21:09:05.277Z,66.70
2023-03-18T21:14:14.729Z,67.20
2023-03-18T21:19:17.673Z,67.58
2023-03-18T21:24:27.675Z,68.13
2023-03-18T21:29:30.708Z,68.62
2023-03-18T21:34:33.823Z,69.38
2023-03-18T21:39:36.889Z,69.47
2023-03-18T21:44:39.956Z,70.08
2023-03-18T21:49:44.134Z,70.24
2023-03-18T21:54:47.422Z,70.20
2023-03-18T21:59:52.557Z,71.24
2023-03-18T22:04:59.257Z,71.41
2023-03-18T22:10:02.406Z,71.82
2023-03-18T22:15:36.778Z,72.65
2023-03-18T22:20:41.095Z,73.01
2023-03-18T22:25:47.337Z,73.05
2023-03-18T22:30:52.840Z,73.19
2023-03-18T22:35:56.498Z,73.73
2023-03-18T22:40:59.463Z,74.15
2023-03-18T22:46:06.613Z,74.24
2023-03-18T22:51:27.771Z,73.70
2023-03-18T22:56:32.419Z,74.07
2023-03-18T23:01:37.419Z,74.49
2023-03-18T23:06:41.738Z,74.48
2023-03-18T23:11:46.761Z,74.90
2023-03-18T23:16:49.726Z,74.32
2023-03-18T23:21:52.648Z,74.81
2023-03-18T23:26:55.604Z,75.04
2023-03-18T23:31:58.853Z,75.16
2023-03-18T23:37:02.701Z,75.86
2023-03-18T23:42:06.248Z,76.13
2023-03-18T23:47:11.158Z,76.19
2023-03-18T23:52:15.823Z,76.47
2023-03-18T23:57:18.791Z,77.02
